Historyczne dane pomiarowe

Dodano dane terminowe – wersja testowa.

Dane z okresu 1951-2019

Wersja bazy: 1.34 [2019-03-16, lista zmian], aktualizacja planowana na 2019-04-15

Dane meteo z obszaru Polski uzyskane na podstawie danych udostępnionych przez Instytut Meteorologii i Gospodarki Wodnej – Państwowy Instytut Badawczy.

 

Wybierz Datę:    

       

TemperaturaWilgotnośćWiatrCiśnienieOpadyŚniegCzas trwania zjawisk
 Stacja t tx tn tng RH VA  wxwx mslp ppp RRR   cm mm wxwxwxwxwxwxwx
2002-10-10 4.1 8.5 1.6 0.1 83.8- 5.0 1.7---- 1.0------------
2002-10-09 5.1 7.7 3.9 2.5 79.5- 7.0 3.0---- 2.3------------
2002-10-08 6.7 9.0 4.6 4.3 88.5- 7.7 4.0---- 3.5------------
2002-10-07 5.2 6.3 4.2 3.5 86.3- 7.7 7.0---- 9.5------------
2002-10-06 7.5 10.4 5.7 4.8 90.8- 8.0 3.3---- 27.8------------
2002-10-05 10.7 13.6 9.0 7.4 90.5- 7.0 3.0---- 7.4------------
2002-10-04 10.4 13.7 7.1 4.5 89.3- 7.3 4.0---- 4.3------------
2002-10-03 10.5 18.4 5.4 3.4 86.5- 3.0 2.3---- 0.0------------
2002-10-02 11.0 13.0 9.9 9.0 94.3- 5.7 1.3---- 1.0------------
2002-10-01 12.2 14.3 9.9 7.4 78.3- 7.7 3.3---- 0.8------------
2002-09-30 12.7 15.4 11.6 9.4 86.3- 7.3 2.7---- 0.0------------
2002-09-29 11.3 15.3 6.9 3.6 83.5- 7.0 4.3---- 0.0------------
2002-09-28 8.3 13.2 5.3 3.4 74.0- 3.7 3.0---- 0.0------------
2002-09-27 9.6 11.9 8.4 6.9 71.3- 7.0 5.0---- 0.4------------
2002-09-26 10.1 13.4 6.9 2.9 90.5- 7.3 1.7---- 4.0------------
2002-09-25 8.2 18.1 1.3 -1.8 70.5- 1.3 1.7---- 0.0------------
2002-09-24 7.1 14.1 2.6 -0.3 76.3- 4.0 1.0---- 0.0------------
2002-09-23 8.4 10.7 6.8 5.5 66.0- 4.0 5.7---- 0.0------------
2002-09-22 8.8 10.6 6.9 3.9 74.5- 7.3 5.3---- 0.0------------
2002-09-21 11.0 14.7 9.4 7.9 87.8- 4.7 2.0---- 0.7------------
2002-09-20 10.0 16.3 3.5 1.8 83.0- 6.7 3.3---- 0.5------------
2002-09-19 12.0 16.9 9.1 7.3 76.5- 3.0 3.0---- 0.0------------
2002-09-18 13.7 17.1 12.0 9.9 79.0- 4.0 5.0---- 4.6------------
2002-09-17 12.7 17.9 9.4 7.9 78.0- 6.7 3.3---- 1.0------------
2002-09-16 11.0 14.1 8.6 7.4 87.3- 7.3 3.7---- 0.8------------
2002-09-15 11.6 14.7 9.8 8.4 93.3- 6.0 3.7---- 26.8------------
2002-09-14 14.5 19.7 11.2 8.8 80.8- 5.3 6.0---- 38.1------------
2002-09-13 12.5 19.7 5.6 3.5 83.0- 3.3 1.3---- 0.6------------
2002-09-12 12.1 17.7 7.4 3.5 77.0- 2.0 2.0---- 0.0------------
2002-09-11 16.1 19.5 14.4 12.9 59.3- 3.0 5.3---- 0.0------------
2002-09-10 17.2 23.5 13.7 13.1 82.5- 2.7 2.3---- 0.0------------
2002-09-09 18.0 23.0 13.3 12.4 89.5- 3.3 2.0---- 0.0------------
2002-09-08 15.0 21.6 9.4 6.9 83.0- 0.7 2.3---- 0.0------------
2002-09-07 16.4 23.1 11.9 10.4 75.8- 2.7 1.0---- 0.0------------
2002-09-06 17.2 20.5 15.5 13.4 89.8- 6.7 2.0---- 0.1------------
2002-09-05 19.4 27.9 14.0 10.4 62.5- 6.3 3.0---- 5.0------------
2002-09-04 18.8 28.0 11.0 6.9 69.5- 2.0 3.3---- 0.0------------
2002-09-03 14.8 22.2 7.1 5.1 76.0- 0.3 3.0---- 0.0------------
2002-09-02 14.6 21.0 8.4 5.9 73.5- 1.7 2.3---- 0.0------------
2002-09-01 17.0 21.5 15.0 13.9 61.8- 5.3 5.3---- 0.0------------
2002-08-31 19.3 27.5 12.4 10.5 73.5- 4.7 2.3---- 1.8------------
2002-08-30 18.7 25.6 13.9 12.4 77.0- 6.7 2.3---- 0.0------------
2002-08-29 19.7 28.5 11.5 10.9 66.3- 5.3 1.3---- 0.0------------
2002-08-28 18.2 26.7 11.5 9.9 67.0- 5.0 1.7---- 0.0------------
2002-08-27 18.8 26.0 11.9 9.9 57.3- 3.7 3.0---- 0.0------------
2002-08-26 17.9 25.4 10.8 8.0 70.8- 5.7 2.7---- 0.0------------
2002-08-25 17.2 24.5 10.4 7.4 68.3- 2.0 2.7---- 0.0------------
2002-08-24 16.7 23.5 10.7 8.5 72.3- 2.3 1.7---- 0.0------------
2002-08-23 17.2 23.3 10.8 8.9 76.0- 4.3 2.0---- 0.0------------
2002-08-22 18.0 25.0 11.1 9.5 81.8- 4.3 2.0---- 0.0------------
2002-08-21 18.1 26.1 11.4 8.4 74.0- 4.7 2.3---- 0.0------------
2002-08-20 17.9 26.2 9.9 7.9 61.3- 1.0 2.0---- 0.0------------
2002-08-19 18.2 25.8 10.3 8.4 67.8- 1.3 2.7---- 0.0------------
2002-08-18 18.9 23.5 13.4 10.4 73.0- 4.3 4.3---- 0.0------------
2002-08-17 19.9 24.2 15.4 14.9 74.0- 4.7 3.7---- 0.0------------
2002-08-16 21.8 27.5 17.2 16.4 70.0- 3.3 2.0---- 0.0------------
2002-08-15 20.7 26.5 15.9 14.1 77.8- 3.3 2.7---- 0.0------------
2002-08-14 19.6 23.4 16.7 16.4 84.3- 4.0 5.3---- 0.0------------
2002-08-13 18.5 20.5 16.7 16.5 94.3- 7.3 1.7---- 0.1------------
2002-08-12 20.0 24.1 16.3 13.9 76.0- 7.0 2.7---- 20.3------------
227.4 ms

 

Źródłem pochodzenia danych jest Instytut Meteorologii i Gospodarki Wodnej – Państwowy Instytut Badawczy. Dane Instytutu Meteorologii i Gospodarki Wodnej – Państwowego Instytutu Badawczego zostały przetworzone.

Dane źródłowe można odnaleźć na stronie https://dane.imgw.pl